Terminal Aerodrome Forecast
Issued by NWS

Home | Current Version | Previous Version | Text Only | Print | Product List | Glossary On
Versions: 1 2 3 4 5 6 7 8 9 10 11 12 13 14 15 16 17 18 19 20 21 22 23 24
000
FTUS44 KHGX 020104 AAA
TAFLBX
TAF AMD
KLBX 020104Z 0201/0224 09008KT P6SM VCSH OVC008
     FM020400 07008KT P6SM BKN015 BKN050
     FM020800 02012KT P6SM VCTS SCT008CB OVC015
     FM021600 36012G20KT P6SM VCSH BKN018 OVC050
     FM022000 35015KT P6SM BKN050=

USA.gov is the U.S. government's official web portal to all federal, state and local government web resources and services.